sensor_id;sensor_type;location;lat;lon;timestamp;P1;durP1;ratioP1;P2;durP2;ratioP2
51499;SDS011;39101;53.478;6.158;2023-07-31T00:00:13;7.43;;;2.35;;
51499;SDS011;39101;53.478;6.158;2023-07-31T00:02:39;16.58;;;2.63;;
51499;SDS011;39101;53.478;6.158;2023-07-31T00:05:05;9.60;;;2.60;;
51499;SDS011;39101;53.478;6.158;2023-07-31T00:07:31;10.93;;;2.25;;
51499;SDS011;39101;53.478;6.158;2023-07-31T00:09:57;10.20;;;2.58;;
51499;SDS011;39101;53.478;6.158;2023-07-31T00:12:23;13.35;;;2.38;;
51499;SDS011;39101;53.478;6.158;2023-07-31T00:14:49;13.15;;;2.38;;
51499;SDS011;39101;53.478;6.158;2023-07-31T00:17:15;11.52;;;2.65;;
51499;SDS011;39101;53.478;6.158;2023-07-31T00:19:41;11.32;;;2.53;;
51499;SDS011;39101;53.478;6.158;2023-07-31T00:22:07;11.07;;;2.13;;
51499;SDS011;39101;53.478;6.158;2023-07-31T00:24:32;7.88;;;2.13;;
51499;SDS011;39101;53.478;6.158;2023-07-31T00:26:58;12.55;;;2.05;;
51499;SDS011;39101;53.478;6.158;2023-07-31T00:29:24;15.77;;;2.88;;
51499;SDS011;39101;53.478;6.158;2023-07-31T00:31:49;10.77;;;2.33;;
51499;SDS011;39101;53.478;6.158;2023-07-31T00:34:15;10.18;;;2.30;;
51499;SDS011;39101;53.478;6.158;2023-07-31T00:36:41;11.55;;;2.08;;
51499;SDS011;39101;53.478;6.158;2023-07-31T00:39:06;11.52;;;2.70;;
51499;SDS011;39101;53.478;6.158;2023-07-31T00:41:32;9.77;;;2.08;;
51499;SDS011;39101;53.478;6.158;2023-07-31T00:43:57;10.38;;;1.70;;
51499;SDS011;39101;53.478;6.158;2023-07-31T00:46:23;11.10;;;2.38;;
51499;SDS011;39101;53.478;6.158;2023-07-31T00:48:49;11.85;;;2.40;;
51499;SDS011;39101;53.478;6.158;2023-07-31T00:51:14;10.10;;;2.55;;
51499;SDS011;39101;53.478;6.158;2023-07-31T00:53:41;9.20;;;2.40;;
51499;SDS011;39101;53.478;6.158;2023-07-31T00:56:07;8.45;;;2.45;;
51499;SDS011;39101;53.478;6.158;2023-07-31T00:58:33;10.30;;;1.70;;
51499;SDS011;39101;53.478;6.158;2023-07-31T01:00:59;10.73;;;1.92;;
51499;SDS011;39101;53.478;6.158;2023-07-31T01:03:25;6.80;;;1.55;;
51499;SDS011;39101;53.478;6.158;2023-07-31T01:08:24;8.48;;;2.00;;
51499;SDS011;39101;53.478;6.158;2023-07-31T01:11:17;9.48;;;1.45;;
51499;SDS011;39101;53.478;6.158;2023-07-31T01:13:46;7.32;;;1.40;;
51499;SDS011;39101;53.478;6.158;2023-07-31T01:16:12;9.45;;;1.73;;
51499;SDS011;39101;53.478;6.158;2023-07-31T01:18:38;8.75;;;1.77;;
51499;SDS011;39101;53.478;6.158;2023-07-31T01:21:07;11.32;;;2.72;;
51499;SDS011;39101;53.478;6.158;2023-07-31T01:23:50;6.43;;;1.73;;
51499;SDS011;39101;53.478;6.158;2023-07-31T01:26:24;7.15;;;1.90;;
51499;SDS011;39101;53.478;6.158;2023-07-31T01:29:10;9.13;;;1.88;;
51499;SDS011;39101;53.478;6.158;2023-07-31T01:31:46;8.02;;;1.90;;
51499;SDS011;39101;53.478;6.158;2023-07-31T01:34:15;7.17;;;1.70;;
51499;SDS011;39101;53.478;6.158;2023-07-31T01:36:43;9.25;;;1.95;;
51499;SDS011;39101;53.478;6.158;2023-07-31T01:39:08;12.05;;;1.60;;
51499;SDS011;39101;53.478;6.158;2023-07-31T01:41:34;9.27;;;2.50;;
51499;SDS011;39101;53.478;6.158;2023-07-31T01:44:00;9.10;;;1.83;;
51499;SDS011;39101;53.478;6.158;2023-07-31T01:46:25;9.15;;;2.15;;
51499;SDS011;39101;53.478;6.158;2023-07-31T01:48:51;10.82;;;2.20;;
51499;SDS011;39101;53.478;6.158;2023-07-31T01:51:17;9.13;;;2.67;;
51499;SDS011;39101;53.478;6.158;2023-07-31T01:53:42;8.45;;;1.95;;
51499;SDS011;39101;53.478;6.158;2023-07-31T01:56:08;7.82;;;2.50;;
51499;SDS011;39101;53.478;6.158;2023-07-31T01:58:34;7.60;;;1.90;;
51499;SDS011;39101;53.478;6.158;2023-07-31T02:00:59;9.00;;;1.70;;
51499;SDS011;39101;53.478;6.158;2023-07-31T02:03:25;10.80;;;1.98;;
51499;SDS011;39101;53.478;6.158;2023-07-31T02:05:50;9.95;;;2.10;;
51499;SDS011;39101;53.478;6.158;2023-07-31T02:08:16;9.05;;;2.15;;
51499;SDS011;39101;53.478;6.158;2023-07-31T02:10:42;9.13;;;2.17;;
51499;SDS011;39101;53.478;6.158;2023-07-31T02:13:08;10.73;;;2.42;;
51499;SDS011;39101;53.478;6.158;2023-07-31T02:15:34;5.53;;;2.00;;
51499;SDS011;39101;53.478;6.158;2023-07-31T02:18:00;11.00;;;2.35;;
51499;SDS011;39101;53.478;6.158;2023-07-31T02:20:26;10.73;;;2.05;;
51499;SDS011;39101;53.478;6.158;2023-07-31T02:22:51;12.07;;;2.85;;
51499;SDS011;39101;53.478;6.158;2023-07-31T02:25:17;11.65;;;2.60;;
51499;SDS011;39101;53.478;6.158;2023-07-31T02:27:43;8.52;;;2.05;;
51499;SDS011;39101;53.478;6.158;2023-07-31T02:30:08;11.40;;;2.28;;
51499;SDS011;39101;53.478;6.158;2023-07-31T02:32:35;7.63;;;2.40;;
51499;SDS011;39101;53.478;6.158;2023-07-31T02:35:00;10.88;;;2.05;;
51499;SDS011;39101;53.478;6.158;2023-07-31T02:37:26;7.53;;;1.88;;
51499;SDS011;39101;53.478;6.158;2023-07-31T02:39:54;8.88;;;2.67;;
51499;SDS011;39101;53.478;6.158;2023-07-31T02:42:20;7.70;;;1.88;;
51499;SDS011;39101;53.478;6.158;2023-07-31T02:44:45;8.45;;;2.35;;
51499;SDS011;39101;53.478;6.158;2023-07-31T02:47:11;7.45;;;1.70;;
51499;SDS011;39101;53.478;6.158;2023-07-31T02:49:37;11.20;;;2.08;;
51499;SDS011;39101;53.478;6.158;2023-07-31T02:52:02;6.97;;;1.92;;
51499;SDS011;39101;53.478;6.158;2023-07-31T02:54:28;8.50;;;2.13;;
51499;SDS011;39101;53.478;6.158;2023-07-31T02:56:54;6.68;;;1.92;;
51499;SDS011;39101;53.478;6.158;2023-07-31T02:59:20;7.88;;;1.83;;
51499;SDS011;39101;53.478;6.158;2023-07-31T03:01:45;8.43;;;2.50;;
51499;SDS011;39101;53.478;6.158;2023-07-31T03:04:11;7.07;;;1.95;;
51499;SDS011;39101;53.478;6.158;2023-07-31T03:06:37;11.52;;;2.25;;
51499;SDS011;39101;53.478;6.158;2023-07-31T03:09:02;5.80;;;1.50;;
51499;SDS011;39101;53.478;6.158;2023-07-31T03:11:28;5.15;;;2.08;;
51499;SDS011;39101;53.478;6.158;2023-07-31T03:13:53;8.90;;;1.92;;
51499;SDS011;39101;53.478;6.158;2023-07-31T03:16:19;7.50;;;2.50;;
51499;SDS011;39101;53.478;6.158;2023-07-31T03:18:45;8.65;;;2.30;;
51499;SDS011;39101;53.478;6.158;2023-07-31T03:21:10;7.70;;;2.40;;
51499;SDS011;39101;53.478;6.158;2023-07-31T03:23:37;11.15;;;2.17;;
51499;SDS011;39101;53.478;6.158;2023-07-31T03:26:07;7.78;;;1.75;;
51499;SDS011;39101;53.478;6.158;2023-07-31T03:28:33;7.10;;;1.80;;
51499;SDS011;39101;53.478;6.158;2023-07-31T03:30:59;12.00;;;2.10;;
51499;SDS011;39101;53.478;6.158;2023-07-31T03:33:25;7.43;;;1.98;;
51499;SDS011;39101;53.478;6.158;2023-07-31T03:35:51;9.60;;;2.15;;
51499;SDS011;39101;53.478;6.158;2023-07-31T03:38:16;6.13;;;2.00;;
51499;SDS011;39101;53.478;6.158;2023-07-31T03:40:42;6.07;;;2.20;;
51499;SDS011;39101;53.478;6.158;2023-07-31T03:43:08;6.05;;;1.90;;
51499;SDS011;39101;53.478;6.158;2023-07-31T03:45:33;5.95;;;1.40;;
51499;SDS011;39101;53.478;6.158;2023-07-31T03:47:59;4.97;;;1.50;;
51499;SDS011;39101;53.478;6.158;2023-07-31T03:50:25;5.03;;;1.63;;
51499;SDS011;39101;53.478;6.158;2023-07-31T03:52:50;8.70;;;1.88;;
51499;SDS011;39101;53.478;6.158;2023-07-31T03:55:17;5.95;;;1.50;;
51499;SDS011;39101;53.478;6.158;2023-07-31T03:57:43;4.30;;;1.70;;
51499;SDS011;39101;53.478;6.158;2023-07-31T04:00:09;8.90;;;2.05;;
51499;SDS011;39101;53.478;6.158;2023-07-31T04:02:35;9.90;;;2.60;;
51499;SDS011;39101;53.478;6.158;2023-07-31T04:05:00;5.72;;;2.15;;
51499;SDS011;39101;53.478;6.158;2023-07-31T04:07:26;5.07;;;2.10;;
51499;SDS011;39101;53.478;6.158;2023-07-31T04:09:52;3.42;;;1.83;;
51499;SDS011;39101;53.478;6.158;2023-07-31T04:12:17;5.95;;;1.70;;
51499;SDS011;39101;53.478;6.158;2023-07-31T04:14:43;7.53;;;1.75;;
51499;SDS011;39101;53.478;6.158;2023-07-31T04:17:08;7.10;;;1.52;;
51499;SDS011;39101;53.478;6.158;2023-07-31T04:19:34;6.03;;;1.45;;
51499;SDS011;39101;53.478;6.158;2023-07-31T04:22:00;13.55;;;2.28;;
51499;SDS011;39101;53.478;6.158;2023-07-31T04:24:25;6.75;;;1.10;;
51499;SDS011;39101;53.478;6.158;2023-07-31T04:26:51;3.97;;;1.25;;
51499;SDS011;39101;53.478;6.158;2023-07-31T04:29:18;4.53;;;1.20;;
51499;SDS011;39101;53.478;6.158;2023-07-31T04:31:44;7.30;;;1.00;;
51499;SDS011;39101;53.478;6.158;2023-07-31T04:34:09;2.17;;;1.05;;
51499;SDS011;39101;53.478;6.158;2023-07-31T04:36:36;4.25;;;1.15;;
51499;SDS011;39101;53.478;6.158;2023-07-31T04:39:02;3.47;;;1.00;;
51499;SDS011;39101;53.478;6.158;2023-07-31T04:41:28;3.90;;;1.40;;
51499;SDS011;39101;53.478;6.158;2023-07-31T04:43:53;3.25;;;1.23;;
51499;SDS011;39101;53.478;6.158;2023-07-31T04:46:19;2.72;;;1.10;;
51499;SDS011;39101;53.478;6.158;2023-07-31T04:48:45;3.38;;;1.00;;
51499;SDS011;39101;53.478;6.158;2023-07-31T04:51:10;4.05;;;1.45;;
51499;SDS011;39101;53.478;6.158;2023-07-31T04:53:36;6.60;;;1.13;;
51499;SDS011;39101;53.478;6.158;2023-07-31T04:56:02;3.72;;;0.98;;
51499;SDS011;39101;53.478;6.158;2023-07-31T04:58:27;3.10;;;1.00;;
51499;SDS011;39101;53.478;6.158;2023-07-31T05:00:53;3.45;;;0.90;;
51499;SDS011;39101;53.478;6.158;2023-07-31T05:03:19;3.60;;;1.00;;
51499;SDS011;39101;53.478;6.158;2023-07-31T05:05:45;2.65;;;0.93;;
51499;SDS011;39101;53.478;6.158;2023-07-31T05:08:10;4.18;;;1.05;;
51499;SDS011;39101;53.478;6.158;2023-07-31T05:10:36;3.75;;;1.52;;
51499;SDS011;39101;53.478;6.158;2023-07-31T05:13:02;2.55;;;1.00;;
51499;SDS011;39101;53.478;6.158;2023-07-31T05:15:28;4.32;;;1.13;;
51499;SDS011;39101;53.478;6.158;2023-07-31T05:17:53;2.80;;;1.10;;
51499;SDS011;39101;53.478;6.158;2023-07-31T05:20:20;2.88;;;1.13;;
51499;SDS011;39101;53.478;6.158;2023-07-31T05:22:46;2.45;;;1.10;;
51499;SDS011;39101;53.478;6.158;2023-07-31T05:25:12;1.83;;;1.10;;
51499;SDS011;39101;53.478;6.158;2023-07-31T05:27:37;5.68;;;1.33;;
51499;SDS011;39101;53.478;6.158;2023-07-31T05:30:03;1.85;;;0.93;;
51499;SDS011;39101;53.478;6.158;2023-07-31T05:32:30;4.78;;;0.90;;
51499;SDS011;39101;53.478;6.158;2023-07-31T05:34:56;1.65;;;0.80;;
51499;SDS011;39101;53.478;6.158;2023-07-31T05:37:22;1.48;;;0.95;;
51499;SDS011;39101;53.478;6.158;2023-07-31T05:39:47;3.95;;;1.05;;
51499;SDS011;39101;53.478;6.158;2023-07-31T05:42:13;1.40;;;0.90;;
51499;SDS011;39101;53.478;6.158;2023-07-31T05:44:39;3.95;;;0.90;;
51499;SDS011;39101;53.478;6.158;2023-07-31T05:47:04;5.13;;;1.08;;
51499;SDS011;39101;53.478;6.158;2023-07-31T05:49:30;3.80;;;1.35;;
51499;SDS011;39101;53.478;6.158;2023-07-31T05:51:56;3.83;;;1.00;;
51499;SDS011;39101;53.478;6.158;2023-07-31T05:54:21;4.82;;;1.00;;
51499;SDS011;39101;53.478;6.158;2023-07-31T05:56:47;2.15;;;1.00;;
51499;SDS011;39101;53.478;6.158;2023-07-31T05:59:13;4.22;;;0.98;;
51499;SDS011;39101;53.478;6.158;2023-07-31T06:01:38;5.15;;;1.45;;
51499;SDS011;39101;53.478;6.158;2023-07-31T06:04:04;4.15;;;1.30;;
51499;SDS011;39101;53.478;6.158;2023-07-31T06:06:30;1.52;;;0.90;;
51499;SDS011;39101;53.478;6.158;2023-07-31T06:08:56;5.22;;;1.25;;
51499;SDS011;39101;53.478;6.158;2023-07-31T06:11:21;3.67;;;1.08;;
51499;SDS011;39101;53.478;6.158;2023-07-31T06:13:47;3.58;;;1.00;;
51499;SDS011;39101;53.478;6.158;2023-07-31T06:16:14;3.38;;;1.55;;
51499;SDS011;39101;53.478;6.158;2023-07-31T06:18:40;2.83;;;1.38;;
51499;SDS011;39101;53.478;6.158;2023-07-31T06:21:07;4.53;;;1.35;;
51499;SDS011;39101;53.478;6.158;2023-07-31T06:23:33;2.92;;;1.30;;
51499;SDS011;39101;53.478;6.158;2023-07-31T06:25:59;7.28;;;1.67;;
51499;SDS011;39101;53.478;6.158;2023-07-31T06:28:31;3.00;;;1.60;;
51499;SDS011;39101;53.478;6.158;2023-07-31T06:31:00;4.68;;;1.27;;
51499;SDS011;39101;53.478;6.158;2023-07-31T06:33:26;5.30;;;1.58;;
51499;SDS011;39101;53.478;6.158;2023-07-31T06:35:52;3.90;;;2.00;;
51499;SDS011;39101;53.478;6.158;2023-07-31T06:38:25;6.60;;;1.95;;
51499;SDS011;39101;53.478;6.158;2023-07-31T06:40:51;3.00;;;1.33;;
51499;SDS011;39101;53.478;6.158;2023-07-31T06:43:17;5.72;;;1.40;;
51499;SDS011;39101;53.478;6.158;2023-07-31T06:45:42;4.93;;;1.48;;
51499;SDS011;39101;53.478;6.158;2023-07-31T06:48:08;2.55;;;1.23;;
51499;SDS011;39101;53.478;6.158;2023-07-31T06:50:34;2.78;;;1.52;;
51499;SDS011;39101;53.478;6.158;2023-07-31T06:52:59;2.88;;;1.30;;
51499;SDS011;39101;53.478;6.158;2023-07-31T06:55:25;4.78;;;1.40;;
51499;SDS011;39101;53.478;6.158;2023-07-31T06:57:52;2.25;;;1.40;;
51499;SDS011;39101;53.478;6.158;2023-07-31T07:00:19;4.40;;;1.33;;
51499;SDS011;39101;53.478;6.158;2023-07-31T07:02:46;2.85;;;1.52;;
51499;SDS011;39101;53.478;6.158;2023-07-31T07:05:15;5.88;;;2.00;;
51499;SDS011;39101;53.478;6.158;2023-07-31T07:07:42;5.13;;;1.85;;
51499;SDS011;39101;53.478;6.158;2023-07-31T07:10:08;3.55;;;1.58;;
51499;SDS011;39101;53.478;6.158;2023-07-31T07:12:34;3.72;;;1.60;;
51499;SDS011;39101;53.478;6.158;2023-07-31T07:15:00;2.83;;;1.48;;
51499;SDS011;39101;53.478;6.158;2023-07-31T07:17:28;3.50;;;1.40;;
51499;SDS011;39101;53.478;6.158;2023-07-31T07:19:57;7.43;;;1.75;;
51499;SDS011;39101;53.478;6.158;2023-07-31T07:22:23;3.58;;;1.48;;
51499;SDS011;39101;53.478;6.158;2023-07-31T07:24:49;3.08;;;1.30;;
51499;SDS011;39101;53.478;6.158;2023-07-31T07:27:15;2.53;;;1.15;;
51499;SDS011;39101;53.478;6.158;2023-07-31T07:29:41;4.22;;;1.20;;
51499;SDS011;39101;53.478;6.158;2023-07-31T07:32:06;2.15;;;1.25;;
51499;SDS011;39101;53.478;6.158;2023-07-31T07:34:32;3.33;;;1.20;;
51499;SDS011;39101;53.478;6.158;2023-07-31T07:36:58;5.78;;;1.42;;
51499;SDS011;39101;53.478;6.158;2023-07-31T07:39:24;3.05;;;1.02;;
51499;SDS011;39101;53.478;6.158;2023-07-31T07:41:50;2.20;;;1.40;;
51499;SDS011;39101;53.478;6.158;2023-07-31T07:44:15;3.67;;;1.30;;
51499;SDS011;39101;53.478;6.158;2023-07-31T07:46:41;3.22;;;1.23;;
51499;SDS011;39101;53.478;6.158;2023-07-31T07:49:07;1.65;;;1.13;;
51499;SDS011;39101;53.478;6.158;2023-07-31T07:51:32;1.00;;;0.70;;
51499;SDS011;39101;53.478;6.158;2023-07-31T07:53:58;1.58;;;0.80;;
51499;SDS011;39101;53.478;6.158;2023-07-31T07:56:25;3.13;;;1.10;;
51499;SDS011;39101;53.478;6.158;2023-07-31T07:58:51;1.85;;;0.90;;
51499;SDS011;39101;53.478;6.158;2023-07-31T08:01:17;1.60;;;0.80;;
51499;SDS011;39101;53.478;6.158;2023-07-31T08:03:43;3.00;;;0.80;;
51499;SDS011;39101;53.478;6.158;2023-07-31T08:06:08;2.00;;;1.05;;
51499;SDS011;39101;53.478;6.158;2023-07-31T08:08:35;1.98;;;1.00;;
51499;SDS011;39101;53.478;6.158;2023-07-31T08:11:01;1.83;;;0.80;;
51499;SDS011;39101;53.478;6.158;2023-07-31T08:13:26;1.70;;;0.80;;
51499;SDS011;39101;53.478;6.158;2023-07-31T08:15:52;3.85;;;1.00;;
51499;SDS011;39101;53.478;6.158;2023-07-31T08:18:18;5.80;;;1.50;;
51499;SDS011;39101;53.478;6.158;2023-07-31T08:20:44;9.27;;;2.13;;
51499;SDS011;39101;53.478;6.158;2023-07-31T08:23:10;7.72;;;1.90;;
51499;SDS011;39101;53.478;6.158;2023-07-31T08:25:36;8.88;;;2.15;;
51499;SDS011;39101;53.478;6.158;2023-07-31T08:28:02;8.65;;;1.80;;
51499;SDS011;39101;53.478;6.158;2023-07-31T08:30:28;6.60;;;1.90;;
51499;SDS011;39101;53.478;6.158;2023-07-31T08:32:55;6.60;;;1.75;;
51499;SDS011;39101;53.478;6.158;2023-07-31T08:35:20;6.78;;;1.67;;
51499;SDS011;39101;53.478;6.158;2023-07-31T08:37:46;4.63;;;1.33;;
51499;SDS011;39101;53.478;6.158;2023-07-31T08:40:12;4.65;;;1.60;;
51499;SDS011;39101;53.478;6.158;2023-07-31T08:42:48;9.02;;;2.00;;
51499;SDS011;39101;53.478;6.158;2023-07-31T08:45:15;10.38;;;1.98;;
51499;SDS011;39101;53.478;6.158;2023-07-31T08:47:45;12.35;;;2.22;;
51499;SDS011;39101;53.478;6.158;2023-07-31T08:50:12;8.73;;;1.95;;
51499;SDS011;39101;53.478;6.158;2023-07-31T08:52:39;5.95;;;1.30;;
51499;SDS011;39101;53.478;6.158;2023-07-31T08:55:05;3.70;;;0.60;;
51499;SDS011;39101;53.478;6.158;2023-07-31T08:57:32;2.33;;;0.50;;
51499;SDS011;39101;53.478;6.158;2023-07-31T09:00:00;0.52;;;0.30;;
51499;SDS011;39101;53.478;6.158;2023-07-31T09:02:29;0.63;;;0.30;;
51499;SDS011;39101;53.478;6.158;2023-07-31T09:05:00;0.93;;;0.25;;
51499;SDS011;39101;53.478;6.158;2023-07-31T09:07:27;1.15;;;0.30;;
51499;SDS011;39101;53.478;6.158;2023-07-31T09:09:55;1.40;;;0.30;;
51499;SDS011;39101;53.478;6.158;2023-07-31T09:12:20;0.68;;;0.32;;
51499;SDS011;39101;53.478;6.158;2023-07-31T09:14:46;1.45;;;0.30;;
51499;SDS011;39101;53.478;6.158;2023-07-31T09:17:12;1.42;;;0.50;;
51499;SDS011;39101;53.478;6.158;2023-07-31T09:19:38;0.68;;;0.32;;
51499;SDS011;39101;53.478;6.158;2023-07-31T09:22:04;1.27;;;0.50;;
51499;SDS011;39101;53.478;6.158;2023-07-31T09:24:31;2.17;;;0.50;;
51499;SDS011;39101;53.478;6.158;2023-07-31T09:26:58;0.60;;;0.40;;
51499;SDS011;39101;53.478;6.158;2023-07-31T09:29:26;1.67;;;0.30;;
51499;SDS011;39101;53.478;6.158;2023-07-31T09:31:53;1.70;;;0.50;;
51499;SDS011;39101;53.478;6.158;2023-07-31T09:34:19;2.90;;;0.70;;
51499;SDS011;39101;53.478;6.158;2023-07-31T09:36:52;2.92;;;1.00;;
51499;SDS011;39101;53.478;6.158;2023-07-31T09:39:18;10.95;;;2.45;;
51499;SDS011;39101;53.478;6.158;2023-07-31T09:41:53;4.72;;;1.17;;
51499;SDS011;39101;53.478;6.158;2023-07-31T09:44:19;4.28;;;1.10;;
51499;SDS011;39101;53.478;6.158;2023-07-31T09:46:46;2.17;;;1.08;;
51499;SDS011;39101;53.478;6.158;2023-07-31T09:49:12;5.97;;;1.85;;
51499;SDS011;39101;53.478;6.158;2023-07-31T09:51:39;10.13;;;3.28;;
51499;SDS011;39101;53.478;6.158;2023-07-31T09:54:10;12.52;;;3.15;;
51499;SDS011;39101;53.478;6.158;2023-07-31T09:56:47;13.10;;;4.10;;
51499;SDS011;39101;53.478;6.158;2023-07-31T09:59:17;12.20;;;4.68;;
51499;SDS011;39101;53.478;6.158;2023-07-31T10:01:45;14.93;;;4.18;;
51499;SDS011;39101;53.478;6.158;2023-07-31T10:04:11;15.60;;;3.72;;
51499;SDS011;39101;53.478;6.158;2023-07-31T10:06:38;11.20;;;2.90;;
51499;SDS011;39101;53.478;6.158;2023-07-31T10:09:09;12.85;;;3.83;;
51499;SDS011;39101;53.478;6.158;2023-07-31T10:11:47;13.30;;;3.30;;
51499;SDS011;39101;53.478;6.158;2023-07-31T10:14:21;14.43;;;3.50;;
51499;SDS011;39101;53.478;6.158;2023-07-31T10:16:48;11.30;;;2.90;;
51499;SDS011;39101;53.478;6.158;2023-07-31T10:19:15;13.35;;;3.92;;
51499;SDS011;39101;53.478;6.158;2023-07-31T10:21:42;12.73;;;3.92;;
51499;SDS011;39101;53.478;6.158;2023-07-31T10:24:08;12.02;;;3.38;;
51499;SDS011;39101;53.478;6.158;2023-07-31T10:26:34;16.10;;;3.80;;
51499;SDS011;39101;53.478;6.158;2023-07-31T10:29:02;17.77;;;3.95;;
51499;SDS011;39101;53.478;6.158;2023-07-31T10:31:29;13.98;;;2.90;;
51499;SDS011;39101;53.478;6.158;2023-07-31T10:33:56;14.95;;;3.75;;
51499;SDS011;39101;53.478;6.158;2023-07-31T10:36:24;10.05;;;3.20;;
51499;SDS011;39101;53.478;6.158;2023-07-31T10:38:49;13.95;;;3.28;;
51499;SDS011;39101;53.478;6.158;2023-07-31T10:41:18;9.45;;;3.08;;
51499;SDS011;39101;53.478;6.158;2023-07-31T10:43:47;9.43;;;3.60;;
51499;SDS011;39101;53.478;6.158;2023-07-31T10:46:13;10.75;;;3.92;;
51499;SDS011;39101;53.478;6.158;2023-07-31T10:48:39;13.45;;;3.40;;
51499;SDS011;39101;53.478;6.158;2023-07-31T10:51:10;11.65;;;3.55;;
51499;SDS011;39101;53.478;6.158;2023-07-31T10:53:41;12.95;;;3.40;;
51499;SDS011;39101;53.478;6.158;2023-07-31T10:56:10;10.00;;;3.05;;
51499;SDS011;39101;53.478;6.158;2023-07-31T10:58:43;13.23;;;3.80;;
51499;SDS011;39101;53.478;6.158;2023-07-31T11:01:11;13.35;;;3.67;;
51499;SDS011;39101;53.478;6.158;2023-07-31T11:06:13;16.50;;;3.60;;
51499;SDS011;39101;53.478;6.158;2023-07-31T11:08:46;16.45;;;3.35;;
51499;SDS011;39101;53.478;6.158;2023-07-31T11:11:13;8.77;;;2.60;;
51499;SDS011;39101;53.478;6.158;2023-07-31T11:13:52;8.23;;;2.65;;
51499;SDS011;39101;53.478;6.158;2023-07-31T11:16:20;10.07;;;2.75;;
51499;SDS011;39101;53.478;6.158;2023-07-31T11:18:47;7.80;;;2.70;;
51499;SDS011;39101;53.478;6.158;2023-07-31T11:23:47;7.05;;;2.30;;
51499;SDS011;39101;53.478;6.158;2023-07-31T11:26:14;11.82;;;2.40;;
51499;SDS011;39101;53.478;6.158;2023-07-31T11:28:41;8.60;;;2.33;;
51499;SDS011;39101;53.478;6.158;2023-07-31T11:31:10;5.90;;;2.17;;
51499;SDS011;39101;53.478;6.158;2023-07-31T11:33:36;8.15;;;2.08;;
51499;SDS011;39101;53.478;6.158;2023-07-31T11:36:02;8.82;;;2.30;;
51499;SDS011;39101;53.478;6.158;2023-07-31T11:38:29;8.32;;;2.25;;
51499;SDS011;39101;53.478;6.158;2023-07-31T11:43:25;10.23;;;2.40;;
51499;SDS011;39101;53.478;6.158;2023-07-31T11:45:54;6.50;;;2.22;;
51499;SDS011;39101;53.478;6.158;2023-07-31T11:48:24;8.18;;;2.70;;
51499;SDS011;39101;53.478;6.158;2023-07-31T11:50:52;12.13;;;2.78;;
51499;SDS011;39101;53.478;6.158;2023-07-31T11:53:25;6.68;;;2.20;;
51499;SDS011;39101;53.478;6.158;2023-07-31T11:55:54;7.40;;;2.17;;
51499;SDS011;39101;53.478;6.158;2023-07-31T11:58:22;7.32;;;2.10;;
51499;SDS011;39101;53.478;6.158;2023-07-31T12:00:48;7.18;;;2.65;;
51499;SDS011;39101;53.478;6.158;2023-07-31T12:03:14;8.98;;;2.40;;
51499;SDS011;39101;53.478;6.158;2023-07-31T12:05:40;11.18;;;2.30;;
51499;SDS011;39101;53.478;6.158;2023-07-31T12:08:10;7.20;;;1.88;;
51499;SDS011;39101;53.478;6.158;2023-07-31T12:10:37;5.55;;;1.52;;
51499;SDS011;39101;53.478;6.158;2023-07-31T12:15:34;8.90;;;1.83;;
51499;SDS011;39101;53.478;6.158;2023-07-31T12:18:05;10.23;;;2.10;;
51499;SDS011;39101;53.478;6.158;2023-07-31T12:20:42;10.88;;;2.13;;
51499;SDS011;39101;53.478;6.158;2023-07-31T12:23:16;10.43;;;3.00;;
51499;SDS011;39101;53.478;6.158;2023-07-31T12:25:43;7.22;;;2.30;;
51499;SDS011;39101;53.478;6.158;2023-07-31T12:28:09;12.95;;;2.63;;
51499;SDS011;39101;53.478;6.158;2023-07-31T12:30:39;13.75;;;3.65;;
51499;SDS011;39101;53.478;6.158;2023-07-31T12:33:15;10.30;;;2.75;;
51499;SDS011;39101;53.478;6.158;2023-07-31T12:35:41;6.55;;;2.00;;
51499;SDS011;39101;53.478;6.158;2023-07-31T12:38:11;6.13;;;2.13;;
51499;SDS011;39101;53.478;6.158;2023-07-31T12:40:38;9.95;;;2.85;;
51499;SDS011;39101;53.478;6.158;2023-07-31T12:43:05;8.63;;;2.70;;
51499;SDS011;39101;53.478;6.158;2023-07-31T12:45:31;7.70;;;2.13;;
51499;SDS011;39101;53.478;6.158;2023-07-31T12:47:58;13.50;;;2.20;;
51499;SDS011;39101;53.478;6.158;2023-07-31T12:50:24;12.52;;;2.95;;
51499;SDS011;39101;53.478;6.158;2023-07-31T12:52:50;8.07;;;2.20;;
51499;SDS011;39101;53.478;6.158;2023-07-31T12:55:18;6.43;;;2.20;;
51499;SDS011;39101;53.478;6.158;2023-07-31T12:57:44;8.02;;;1.80;;
51499;SDS011;39101;53.478;6.158;2023-07-31T13:00:10;9.55;;;2.30;;
51499;SDS011;39101;53.478;6.158;2023-07-31T13:02:36;9.68;;;2.67;;
51499;SDS011;39101;53.478;6.158;2023-07-31T13:05:02;4.72;;;2.10;;
51499;SDS011;39101;53.478;6.158;2023-07-31T13:07:27;6.13;;;2.28;;
51499;SDS011;39101;53.478;6.158;2023-07-31T13:09:53;7.15;;;2.38;;
51499;SDS011;39101;53.478;6.158;2023-07-31T13:12:19;6.65;;;2.50;;
51499;SDS011;39101;53.478;6.158;2023-07-31T13:14:44;5.38;;;1.80;;
51499;SDS011;39101;53.478;6.158;2023-07-31T13:17:10;7.50;;;2.33;;
51499;SDS011;39101;53.478;6.158;2023-07-31T13:19:35;7.53;;;2.45;;
51499;SDS011;39101;53.478;6.158;2023-07-31T13:22:01;8.15;;;2.72;;
51499;SDS011;39101;53.478;6.158;2023-07-31T13:24:27;8.35;;;2.35;;
51499;SDS011;39101;53.478;6.158;2023-07-31T13:26:53;8.25;;;2.22;;
51499;SDS011;39101;53.478;6.158;2023-07-31T13:29:20;9.95;;;2.40;;
51499;SDS011;39101;53.478;6.158;2023-07-31T13:31:46;13.15;;;2.92;;
51499;SDS011;39101;53.478;6.158;2023-07-31T13:34:12;9.77;;;2.13;;
51499;SDS011;39101;53.478;6.158;2023-07-31T13:36:38;13.35;;;2.92;;
51499;SDS011;39101;53.478;6.158;2023-07-31T13:39:04;9.68;;;4.15;;
51499;SDS011;39101;53.478;6.158;2023-07-31T13:41:29;12.93;;;4.30;;
51499;SDS011;39101;53.478;6.158;2023-07-31T13:43:55;7.45;;;2.70;;
51499;SDS011;39101;53.478;6.158;2023-07-31T13:46:20;10.43;;;2.50;;
51499;SDS011;39101;53.478;6.158;2023-07-31T13:48:46;6.55;;;2.40;;
51499;SDS011;39101;53.478;6.158;2023-07-31T13:51:12;11.50;;;2.75;;
51499;SDS011;39101;53.478;6.158;2023-07-31T13:53:37;9.10;;;2.67;;
51499;SDS011;39101;53.478;6.158;2023-07-31T13:56:03;10.45;;;2.78;;
51499;SDS011;39101;53.478;6.158;2023-07-31T13:58:29;7.22;;;2.25;;
51499;SDS011;39101;53.478;6.158;2023-07-31T14:00:54;8.13;;;2.38;;
51499;SDS011;39101;53.478;6.158;2023-07-31T14:03:20;6.50;;;2.13;;
51499;SDS011;39101;53.478;6.158;2023-07-31T14:05:46;8.95;;;2.60;;
51499;SDS011;39101;53.478;6.158;2023-07-31T14:08:11;10.15;;;2.90;;
51499;SDS011;39101;53.478;6.158;2023-07-31T14:10:37;10.18;;;2.78;;
51499;SDS011;39101;53.478;6.158;2023-07-31T14:13:03;11.20;;;2.90;;
51499;SDS011;39101;53.478;6.158;2023-07-31T14:15:28;8.27;;;2.65;;
51499;SDS011;39101;53.478;6.158;2023-07-31T14:17:54;7.78;;;2.58;;
51499;SDS011;39101;53.478;6.158;2023-07-31T14:20:19;9.27;;;2.45;;
51499;SDS011;39101;53.478;6.158;2023-07-31T14:22:45;12.13;;;2.90;;
51499;SDS011;39101;53.478;6.158;2023-07-31T14:25:11;13.05;;;3.00;;
51499;SDS011;39101;53.478;6.158;2023-07-31T14:27:36;14.55;;;3.00;;
51499;SDS011;39101;53.478;6.158;2023-07-31T14:30:02;10.63;;;2.90;;
51499;SDS011;39101;53.478;6.158;2023-07-31T14:32:28;12.38;;;3.10;;
51499;SDS011;39101;53.478;6.158;2023-07-31T14:34:54;10.77;;;3.05;;
51499;SDS011;39101;53.478;6.158;2023-07-31T14:37:20;12.20;;;4.53;;
51499;SDS011;39101;53.478;6.158;2023-07-31T14:39:45;14.07;;;4.72;;
51499;SDS011;39101;53.478;6.158;2023-07-31T14:42:11;12.48;;;3.88;;
51499;SDS011;39101;53.478;6.158;2023-07-31T14:44:37;11.02;;;4.32;;
51499;SDS011;39101;53.478;6.158;2023-07-31T14:47:03;11.75;;;3.83;;
51499;SDS011;39101;53.478;6.158;2023-07-31T14:49:29;14.00;;;3.92;;
51499;SDS011;39101;53.478;6.158;2023-07-31T14:51:55;11.80;;;4.88;;